Language: 


Des rapports , des résumés tant et plus, au choix de chacun....


Données statistiques de la station
Quotidien Rapport Janvier 2, 2017 Unités:  Anglais    Métrique   les deux
« Précédent Jour
Suivant Jour »
Quotidien Hebdomadaire Mensuel Annuel Actuel
  Haut: Bas: Moyen:
Température: 47.8 °F 32.9 °F 37 °F
Pt de rosée: 44.2 °F 31.5 °F 35.6 °F
Humidité: 98 % 83 % 95 %
Vitesse du vent: 4.9 mph 0 mph 0.8 mph
Rafales: 11.9 mph - -
Vent:- - WSW
Pression: 30.3 in 30.1 in -
Précipitation: 0 in    
Historical Graphs
 
 
Données statistiques pour Janvier 2, 2017
Heure Température Point de rosée Pression Vent Vitesse du vent Refales Humidité Pluie (taux horaire)
00:09 34 °F 33.4 °F 30.1 in SW 3.6 mph 6.5 mph 98 % 0 in
00:19 34 °F 33.4 °F 30.1 in SW 4.9 mph 6.3 mph 98 % 0 in
00:29 34 °F 33.4 °F 30.1 in SSW 3.1 mph 6.7 mph 98 % 0 in
00:39 34 °F 33.4 °F 30.1 in Calm   5.4 mph 98 % 0 in
00:49 34 °F 33.4 °F 30.1 in Calm   3.6 mph 98 % 0 in
00:59 34.2 °F 33.6 °F 30.1 in Calm   2.9 mph 98 % 0 in
01:09 34 °F 33.4 °F 30.1 in South 2 mph 4 mph 98 % 0 in
01:19 34 °F 33.4 °F 30.1 in South 3.1 mph 4 mph 98 % 0 in
01:29 34.2 °F 33.6 °F 30.1 in Calm   3.8 mph 98 % 0 in
01:39 34.2 °F 33.6 °F 30.1 in Calm     98 % 0 in
01:49 34.2 °F 33.6 °F 30.1 in Calm     98 % 0 in
01:59 34.2 °F 33.6 °F 30.1 in Calm     98 % 0 in
02:09 34.2 °F 33.6 °F 30.1 in Calm     98 % 0 in
02:19 34.2 °F 33.6 °F 30.1 in Calm     98 % 0 in
02:29 34.2 °F 33.6 °F 30.1 in Calm     98 % 0.01 in
02:39 34.2 °F 33.6 °F 30.1 in Calm   2 mph 98 % 0.01 in
02:49 34.2 °F 33.6 °F 30.1 in Calm     98 % 0.01 in
02:59 34.2 °F 33.6 °F 30.1 in Calm     98 % 0.01 in
03:09 34.2 °F 33.6 °F 30.2 in Calm   1.1 mph 98 % 0.01 in
03:19 34 °F 33.4 °F 30.2 in Calm     98 % 0.01 in
03:29 34 °F 33.4 °F 30.2 in Calm     98 % 0 in
03:39 34 °F 33.4 °F 30.2 in Calm     98 % 0 in
03:49 34 °F 33.4 °F 30.2 in Calm     98 % 0 in
03:59 34 °F 33.4 °F 30.2 in Calm     98 % 0 in
04:09 34 °F 33.4 °F 30.2 in Calm     98 % 0 in
04:19 34 °F 33.4 °F 30.1 in Calm     98 % 0 in
04:29 34 °F 33.4 °F 30.1 in Calm     98 % 0 in
04:39 34 °F 33.4 °F 30.2 in Calm     98 % 0 in
04:49 34 °F 33.4 °F 30.2 in Calm     98 % 0 in
04:59 34 °F 33.4 °F 30.2 in Calm   2.5 mph 98 % 0 in
05:09 34 °F 33.4 °F 30.2 in Calm     98 % 0.01 in
05:19 34.2 °F 33.6 °F 30.2 in Calm     98 % 0.01 in
05:29 34.2 °F 33.6 °F 30.2 in Calm     98 % 0.01 in
05:39 34 °F 33.4 °F 30.2 in Calm     98 % 0.01 in
05:49 34 °F 33.4 °F 30.2 in Calm     98 % 0.01 in
05:59 34 °F 33.4 °F 30.2 in Calm     98 % 0.01 in
06:09 34 °F 33.4 °F 30.2 in Calm     98 % 0 in
06:19 34.2 °F 33.6 °F 30.2 in Calm     98 % 0 in
06:29 34.3 °F 33.8 °F 30.2 in Calm     98 % 0 in
06:39 34.3 °F 33.8 °F 30.2 in Calm     98 % 0 in
06:49 34.3 °F 33.8 °F 30.2 in Calm     98 % 0 in
06:59 34.3 °F 33.8 °F 30.2 in Calm     98 % 0 in
07:09 34.2 °F 33.6 °F 30.2 in Calm   2.2 mph 98 % 0 in
07:19 33.8 °F 33.3 °F 30.2 in Calm     98 % 0 in
07:29 33.8 °F 33.3 °F 30.2 in Calm   2.7 mph 98 % 0 in
07:39 34.2 °F 33.6 °F 30.2 in NE 2.2 mph 4 mph 98 % 0 in
07:49 34.3 °F 33.8 °F 30.2 in Calm     98 % 0.01 in
07:59 34.3 °F 33.8 °F 30.2 in Calm     98 % 0.01 in
08:09 34.3 °F 33.8 °F 30.2 in Calm     98 % 0.01 in
08:19 34.5 °F 34 °F 30.2 in Calm     98 % 0.01 in
08:29 34.5 °F 34.2 °F 30.2 in Calm     98 % 0.01 in
08:39 34.3 °F 33.8 °F 30.2 in Calm     98 % 0.01 in
08:49 34 °F 33.4 °F 30.2 in Calm     98 % 0 in
08:59 34.3 °F 33.8 °F 30.2 in Calm     98 % 0 in
09:09 34.3 °F 33.8 °F 30.2 in Calm   3.4 mph 98 % 0 in
09:19 35.1 °F 34.5 °F 30.2 in Calm   2.9 mph 98 % 0 in
09:29 35.1 °F 34.5 °F 30.2 in Calm     98 % 0 in
09:39 34.5 °F 34 °F 30.2 in Calm     98 % 0 in
09:49 34.5 °F 34.2 °F 30.2 in Calm   2.5 mph 98 % 0 in
09:59 35.4 °F 34.9 °F 30.2 in NW 2.5 mph 2.9 mph 98 % 0 in
10:09 36.1 °F 35.8 °F 30.3 in North 2.5 mph 3.6 mph 98 % 0 in
10:19 36.9 °F 36.3 °F 30.2 in NNW 2 mph 4 mph 98 % 0 in
10:29 37.6 °F 37 °F 30.2 in Calm   3.6 mph 98 % 0 in
10:39 38.5 °F 37.9 °F 30.3 in Calm   3.6 mph 98 % 0 in
10:49 38.7 °F 38.1 °F 30.2 in North 2 mph 3.8 mph 98 % 0 in
10:59 38.8 °F 38.5 °F 30.2 in Calm   3.6 mph 98 % 0 in
11:09 39.7 °F 39.2 °F 30.3 in NNW 2.5 mph 2.5 mph 98 % 0 in
11:19 40.3 °F 39.7 °F 30.3 in Calm   4.3 mph 98 % 0 in
11:29 40.8 °F 40.3 °F 30.3 in NNE 2.2 mph 5.4 mph 98 % 0 in
11:39 41.5 °F 41 °F 30.3 in NNE 2 mph 3.6 mph 98 % 0 in
11:49 42.3 °F 41.7 °F 30.2 in WNW 2 mph 3.8 mph 98 % 0 in
11:59 43.2 °F 42.6 °F 30.2 in Calm   3.8 mph 98 % 0 in
12:09 43.5 °F 43.2 °F 30.3 in North 4 mph 4.3 mph 98 % 0 in
12:19 44.1 °F 43.2 °F 30.3 in Calm   5.8 mph 97 % 0 in
12:49 44.2 °F 42.8 °F 30.3 in North 3.6 mph 6 mph 95 % 0 in
12:59 44.8 °F 42.8 °F 30.3 in North 2.7 mph 5.6 mph 93 % 0 in
13:09 45.1 °F 43.3 °F 30.2 in NNW 2.7 mph 5.4 mph 93 % 0 in
13:19 45.7 °F 43.7 °F 30.3 in NNW 1.6 mph 5.8 mph 93 % 0 in
13:29 45.9 °F 43.5 °F 30.3 in NNE 3.4 mph 6.3 mph 92 % 0 in
13:39 46.2 °F 44.1 °F 30.3 in NW 2.7 mph 4 mph 92 % 0 in
13:49 46.2 °F 43.9 °F 30.3 in Calm   4.5 mph 91 % 0 in
13:59 46.2 °F 43.9 °F 30.3 in NNW 2 mph 4 mph 91 % 0 in
14:09 46.6 °F 43.7 °F 30.3 in North 2 mph 5.4 mph 90 % 0.01 in
14:19 46.2 °F 43.5 °F 30.3 in NW 2.5 mph 6.5 mph 90 % 0.01 in
14:29 46.8 °F 43.5 °F 30.3 in WNW 2.9 mph 4.7 mph 88 % 0.01 in
14:39 47.8 °F 44.2 °F 30.3 in Calm   4.3 mph 87 % 0.01 in
14:49 44.4 °F 39.7 °F 30.3 in NNE 3.4 mph 11.9 mph 83 % 0.01 in
14:59 42.8 °F 38.7 °F 30.3 in Calm   5.8 mph 85 % 0.01 in
15:09 42.8 °F 39.2 °F 30.3 in Calm   2.2 mph 87 % 0 in
15:19 43.9 °F 40.8 °F 30.3 in Calm   3.1 mph 89 % 0 in
15:29 44.2 °F 40.6 °F 30.3 in North 2.2 mph 4.9 mph 87 % 0 in
15:39 44.2 °F 40.6 °F 30.3 in NNW 0.9 mph 3.8 mph 87 % 0 in
15:49 44.4 °F 40.8 °F 30.2 in WNW 2.5 mph 3.4 mph 87 % 0 in
15:59 44.4 °F 40.3 °F 30.2 in Calm   3.1 mph 85 % 0 in
16:09 44.2 °F 39.7 °F 30.3 in NW 2 mph 4.3 mph 84 % 0 in
16:19 44.2 °F 39.7 °F 30.3 in NNE 3.6 mph 6.3 mph 84 % 0 in
16:29 42.1 °F 37.6 °F 30.3 in North 1.3 mph 3.8 mph 84 % 0 in
16:39 42.1 °F 37.6 °F 30.3 in Calm   2.2 mph 84 % 0 in
16:49 40.3 °F 36.1 °F 30.3 in Calm   2.5 mph 85 % 0 in
16:59 39.7 °F 35.6 °F 30.3 in Calm     85 % 0 in
17:09 38.5 °F 34.5 °F 30.3 in Calm   1.1 mph 86 % 0 in
17:19 37.9 °F 34.5 °F 30.3 in Calm   2.2 mph 87 % 0 in
17:29 37.6 °F 34.3 °F 30.3 in NNE 3.6 mph 3.6 mph 88 % 0 in
17:39 37.6 °F 35.1 °F 30.3 in North 0.9 mph 4.3 mph 90 % 0 in
17:49 37.6 °F 35.2 °F 30.3 in North 1.1 mph 3.6 mph 91 % 0 in
17:59 37.6 °F 35.2 °F 30.3 in Calm   3.1 mph 91 % 0 in
18:09 37.6 °F 35.1 °F 30.3 in Calm   3.4 mph 91 % 0 in
18:19 37.6 °F 35.1 °F 30.3 in Calm   3.1 mph 91 % 0 in
18:29 37 °F 34.7 °F 30.3 in NW 1.1 mph 3.8 mph 91 % 0 in
18:39 36.9 °F 34.5 °F 30.3 in Calm   4 mph 91 % 0 in
18:49 36.7 °F 34.2 °F 30.3 in Calm   3.6 mph 91 % 0 in
18:59 36.7 °F 34.2 °F 30.3 in NNW 2.7 mph 2.9 mph 91 % 0 in
19:09 36.7 °F 34.2 °F 30.3 in NNE 3.1 mph 4.9 mph 91 % 0 in
19:19 36.7 °F 34.2 °F 30.3 in Calm   4.3 mph 91 % 0 in
19:29 36.1 °F 34.2 °F 30.3 in West 1.6 mph 2.5 mph 92 % 0 in
19:39 36.3 °F 34.5 °F 30.3 in Calm   2.7 mph 93 % 0 in
19:49 36.1 °F 34.3 °F 30.3 in Calm   3.6 mph 93 % 0 in
19:59 36.1 °F 34.2 °F 30.3 in WNW 1.6 mph 3.4 mph 93 % 0 in
20:09 35.4 °F 33.3 °F 30.3 in Calm   2.2 mph 92 % 0 in
20:19 35.1 °F 33.3 °F 30.3 in West 2.5 mph 3.4 mph 93 % 0 in
20:29 34.9 °F 33.1 °F 30.3 in Calm   3.4 mph 93 % 0 in
20:39 34.9 °F 33.3 °F 30.3 in Calm   3.4 mph 94 % 0 in
20:49 35.1 °F 33.6 °F 30.3 in Calm   3.6 mph 95 % 0 in
20:59 34.9 °F 33.4 °F 30.3 in West 1.1 mph 2.9 mph 95 % 0 in
21:09 34.3 °F 32.7 °F 30.3 in Calm     94 % 0 in
21:19 33.6 °F 32 °F 30.3 in Calm     94 % 0 in
21:29 33.1 °F 31.5 °F 30.3 in SW 1.6 mph 2.2 mph 94 % 0 in
21:39 33.1 °F 31.5 °F 30.3 in Calm   1.1 mph 94 % 0 in
21:49 33.1 °F 31.8 °F 30.3 in Calm     95 % 0 in
21:59 32.9 °F 31.8 °F 30.3 in WSW 2.7 mph 3.4 mph 96 % 0 in
22:09 33.1 °F 32 °F 30.3 in West 3.1 mph 4.3 mph 96 % 0 in
22:19 33.4 °F 32.7 °F 30.3 in West 4.3 mph 4.7 mph 97 % 0 in
22:29 33.8 °F 33.1 °F 30.3 in Calm   4.9 mph 97 % 0 in
22:39 34 °F 33.3 °F 30.3 in Calm     97 % 0 in
22:49 34.3 °F 33.4 °F 30.3 in West 3.6 mph 4 mph 97 % 0 in
22:59 34.5 °F 33.6 °F 30.3 in Calm   4 mph 97 % 0 in
23:09 34.3 °F 33.4 °F 30.3 in Calm   4 mph 97 % 0 in
23:19 34.3 °F 33.4 °F 30.3 in Calm     97 % 0 in
23:29 34.2 °F 33.4 °F 30.3 in Calm   3.4 mph 97 % 0 in
23:39 34.2 °F 33.4 °F 30.3 in Calm   2.5 mph 97 % 0 in
23:49 34.5 °F 34.2 °F 30.3 in Calm   4.7 mph 98 % 0 in
23:59 33.8 °F 33.1 °F 30.3 in Calm     97 % 0 in
Le Gheer Warneton
Courtoisie de Weather Underground - 1.5 mb

Mise a jour : 18/12/2017 17:42:12
Généré par Cumulus 1.9.4 (1099)